Time;durP1;ratioP1;P1;durP2;ratioP2;P2;SDS_P1;SDS_P2;PMS_P1;PMS_P2;Temp;Humidity;BMP_temperature;BMP_pressure;BME280_temperature;BME280_humidity;BME280_pressure;Samples;Min_cycle;Max_cycle;Signal;HPM_P1;HPM_P2
2021/06/11 00:00:45;;;;;;;;;;;;;;;25.30;48.79;99931.03;1731293;83;20141;-77
2021/06/11 00:03:11;;;;;;;;;;;;;;;25.30;48.77;99931.58;1731521;83;20161;-77
2021/06/11 00:05:37;;;;;;;;;;;;;;;25.29;48.77;99938.95;1730953;83;20151;-77
2021/06/11 00:08:05;;;;;;;;;;;;;;;25.28;48.78;99940.05;1730972;83;20173;-77
2021/06/11 00:10:31;;;;;;;;;;;;;;;25.24;48.80;99943.05;1731497;83;20202;-78
2021/06/11 00:12:57;;;;;;;;;;;;;;;25.22;48.85;99938.39;1731156;83;20245;-78
2021/06/11 00:15:23;;;;;;;;;;;;;;;25.20;48.87;99937.81;1731780;83;20162;-77
2021/06/11 00:17:49;;;;;;;;;;;;;;;25.18;48.89;99937.27;1731398;83;20180;-78
2021/06/11 00:20:15;;;;;;;;;;;;;;;25.18;48.95;99936.45;1731340;83;20143;-78
2021/06/11 00:22:42;;;;;;;;;;;;;;;25.18;49.02;99940.56;1731240;83;20149;-78
2021/06/11 00:25:10;;;;;;;;;;;;;;;25.18;49.10;99940.01;1730038;83;20155;-78
2021/06/11 00:27:36;;;;;;;;;;;;;;;25.19;49.12;99935.34;1729727;83;20201;-77
2021/06/11 00:30:04;;;;;;;;;;;;;;;25.20;49.15;99937.81;1728857;83;20179;-77
2021/06/11 00:32:30;;;;;;;;;;;;;;;25.21;49.10;99937.30;1727931;83;20548;-77
2021/06/11 00:34:55;;;;;;;;;;;;;;;25.21;49.09;99938.11;1728603;83;20289;-79
2021/06/11 00:37:23;;;;;;;;;;;;;;;25.21;49.05;99943.59;1727979;83;20192;-77
2021/06/11 00:39:49;;;;;;;;;;;;;;;25.20;49.02;99936.98;1728603;83;20262;-77
2021/06/11 00:42:14;;;;;;;;;;;;;;;25.19;49.03;99943.58;1728468;83;20163;-77
2021/06/11 00:44:40;;;;;;;;;;;;;;;25.17;49.06;99938.37;1729130;83;20186;-77
2021/06/11 00:47:06;;;;;;;;;;;;;;;25.16;49.13;99937.24;1729457;83;20167;-78
2021/06/11 00:49:32;;;;;;;;;;;;;;;25.15;49.17;99932.86;1729213;83;20155;-78
2021/06/11 00:51:58;;;;;;;;;;;;;;;25.14;49.19;99934.78;1729548;83;20172;-77
2021/06/11 00:54:25;;;;;;;;;;;;;;;25.15;49.24;99930.94;1729483;83;20180;-77
2021/06/11 00:56:52;;;;;;;;;;;;;;;25.14;49.25;99927.93;1731178;83;20129;-77
2021/06/11 00:59:18;;;;;;;;;;;;;;;25.16;49.26;99933.95;1731447;83;20194;-78
2021/06/11 01:01:45;;;;;;;;;;;;;;;25.17;49.25;99927.41;1731077;83;20163;-77
2021/06/11 01:04:11;;;;;;;;;;;;;;;25.18;49.24;99924.94;1731405;83;20140;-77
2021/06/11 01:06:40;;;;;;;;;;;;;;;25.18;49.22;99930.42;1731048;82;20184;-77
2021/06/11 01:09:07;;;;;;;;;;;;;;;25.18;49.19;99927.67;1731125;83;20145;-77
2021/06/11 01:11:36;;;;;;;;;;;;;;;25.18;49.23;99931.79;1731207;83;20141;-77
2021/06/11 01:14:03;;;;;;;;;;;;;;;25.17;49.28;99935.62;1731595;83;20149;-77
2021/06/11 01:16:30;;;;;;;;;;;;;;;25.14;49.30;99934.78;1731196;83;20146;-77
2021/06/11 01:18:56;;;;;;;;;;;;;;;25.13;49.34;99930.40;1731205;83;20426;-78
2021/06/11 01:21:22;;;;;;;;;;;;;;;25.11;49.37;99932.56;1731671;83;20219;-78
2021/06/11 01:24:14;;;;;;;;;;;;;;;25.11;49.44;99929.00;1731561;83;20390;-77
2021/06/11 01:26:45;;;;;;;;;;;;;;;25.11;49.51;99935.30;1732199;83;20426;-78
2021/06/11 01:29:16;;;;;;;;;;;;;;;25.12;49.55;99934.75;1731963;83;20145;-78
2021/06/11 01:31:45;;;;;;;;;;;;;;;25.11;49.57;99935.85;1731366;83;20137;-77
2021/06/11 01:34:15;;;;;;;;;;;;;;;25.12;49.52;99942.45;1731562;83;20145;-78
2021/06/11 01:36:50;;;;;;;;;;;;;;;25.13;49.48;99937.80;1731095;82;20137;-78
2021/06/11 01:39:19;;;;;;;;;;;;;;;25.12;49.48;99936.98;1731559;83;20470;-77
2021/06/11 01:41:45;;;;;;;;;;;;;;;25.12;49.51;99938.86;1731444;83;20100;-77
2021/06/11 01:44:11;;;;;;;;;;;;;;;25.11;49.50;99939.97;1731684;83;20151;-77
2021/06/11 01:46:37;;;;;;;;;;;;;;;25.12;49.45;99938.86;1731476;83;20217;-77
2021/06/11 01:49:04;;;;;;;;;;;;;;;25.15;49.45;99946.02;1731180;83;20149;-78
2021/06/11 01:51:30;;;;;;;;;;;;;;;25.16;49.43;99949.58;1730826;83;20246;-78
2021/06/11 01:53:59;;;;;;;;;;;;;;;25.15;49.38;99947.39;1731299;83;20137;-78
2021/06/11 01:56:24;;;;;;;;;;;;;;;25.15;49.35;99948.75;1730886;83;20137;-78
2021/06/11 01:58:50;;;;;;;;;;;;;;;25.15;49.34;99950.13;1705029;83;20230;-78
2021/06/11 02:01:20;;;;;;;;;;;;;;;25.13;49.38;99944.10;1731458;83;20430;-78
2021/06/11 02:03:45;;;;;;;;;;;;;;;25.11;49.50;99947.64;1730644;83;20398;-78
2021/06/11 02:06:16;;;;;;;;;;;;;;;25.10;49.56;99948.73;1731478;83;20161;-78
2021/06/11 02:08:45;;;;;;;;;;;;;;;25.09;49.60;99949.02;1731921;83;20141;-79
2021/06/11 02:11:11;;;;;;;;;;;;;;;25.09;49.64;99946.27;1730570;83;20141;-78
2021/06/11 02:13:42;;;;;;;;;;;;;;;25.09;49.67;99951.20;1731537;83;20457;-78
2021/06/11 02:16:07;;;;;;;;;;;;;;;25.10;49.71;99947.91;1731548;83;20196;-78
2021/06/11 02:18:34;;;;;;;;;;;;;;;25.10;49.70;99950.11;1731682;83;20165;-78
2021/06/11 02:21:03;;;;;;;;;;;;;;;25.09;49.64;99947.09;1709136;83;20213;-78
2021/06/11 02:23:29;;;;;;;;;;;;;;;25.10;49.53;99955.59;1701014;84;20475;-78
2021/06/11 02:25:55;;;;;;;;;;;;;;;25.09;49.50;99963.53;1699457;84;20164;-78
2021/06/11 02:28:21;;;;;;;;;;;;;;;25.06;49.47;99960.73;1699966;84;20260;-78
2021/06/11 02:30:47;;;;;;;;;;;;;;;25.06;49.52;99958.55;1699642;84;20213;-78
2021/06/11 02:33:14;;;;;;;;;;;;;;;25.05;49.52;99960.46;1699509;84;20236;-78
2021/06/11 02:35:40;;;;;;;;;;;;;;;25.05;49.58;99957.72;1701136;83;20554;-78
2021/06/11 02:38:06;;;;;;;;;;;;;;;25.06;49.55;99959.91;1700062;84;20260;-78
2021/06/11 02:40:33;;;;;;;;;;;;;;;25.07;49.55;99960.19;1700624;84;20194;-78
2021/06/11 02:43:01;;;;;;;;;;;;;;;25.08;49.51;99959.16;1700562;84;20975;-77
2021/06/11 02:45:29;;;;;;;;;;;;;;;25.08;49.48;99949.56;1700946;84;20213;-78
2021/06/11 02:48:16;;;;;;;;;;;;;;;25.09;49.42;99951.20;1701716;84;20202;-78
2021/06/11 02:50:51;;;;;;;;;;;;;;;25.10;49.29;99948.73;1702060;84;20183;-78
2021/06/11 02:53:25;;;;;;;;;;;;;;;25.11;49.17;99955.86;1700737;84;20530;-78
2021/06/11 02:55:45;;;;;;;;;;;;;;;25.10;49.24;99962.44;1699189;84;20508;-77
2021/06/11 02:58:18;;;;;;;;;;;;;;;25.08;49.40;99953.67;1652175;84;20242;-78
2021/06/11 03:00:44;;;;;;;;;;;;;;;25.08;49.45;99955.05;1700356;84;20221;-78
2021/06/11 03:03:18;;;;;;;;;;;;;;;25.09;49.59;99958.05;1700539;84;20307;-78
2021/06/11 03:05:44;;;;;;;;;;;;;;;25.11;49.65;99958.59;1683070;84;20171;-77
2021/06/11 03:08:11;;;;;;;;;;;;;;;25.15;49.70;99961.09;1751614;82;20178;-77
2021/06/11 03:10:38;;;;;;;;;;;;;;;25.17;49.70;99957.55;1753004;81;20186;-77
2021/06/11 03:13:04;;;;;;;;;;;;;;;25.19;49.72;99964.13;1752978;81;20131;-78
2021/06/11 03:15:32;;;;;;;;;;;;;;;25.20;49.82;99960.29;1727449;82;20424;-78
2021/06/11 03:18:00;;;;;;;;;;;;;;;25.20;49.99;99960.29;1753342;82;20486;-78
2021/06/11 03:20:29;;;;;;;;;;;;;;;25.20;50.05;99965.77;1753265;82;20499;-78
2021/06/11 03:23:14;;;;;;;;;;;;;;;25.18;50.21;99967.97;1751794;82;20165;-77
2021/06/11 03:25:55;;;;;;;;;;;;;;;25.17;50.39;99965.77;1751889;81;20439;-77
2021/06/11 03:28:25;;;;;;;;;;;;;;;25.18;50.53;99970.71;1751714;81;20534;-77
2021/06/11 03:30:56;;;;;;;;;;;;;;;25.15;50.66;99972.60;1751871;82;20194;-77
2021/06/11 03:33:23;;;;;;;;;;;;;;;25.13;50.69;99975.62;1724714;82;20190;-77
2021/06/11 03:35:53;;;;;;;;;;;;;;;25.16;50.65;99975.06;1749247;82;20186;-77
2021/06/11 03:38:21;;;;;;;;;;;;;;;25.16;50.57;99976.44;1750856;81;20155;-78
2021/06/11 03:40:48;;;;;;;;;;;;;;;25.15;50.52;99976.16;1752240;82;20582;-78
2021/06/11 03:43:14;;;;;;;;;;;;;;;25.15;50.53;99974.80;1736113;82;20199;-78
2021/06/11 03:45:41;;;;;;;;;;;;;;;25.16;50.53;99980.55;1735567;82;20204;-77
2021/06/11 03:48:09;;;;;;;;;;;;;;;25.15;50.46;99976.71;1734054;82;20373;-78
2021/06/11 03:50:39;;;;;;;;;;;;;;;25.15;50.39;99981.64;1724043;82;20578;-78
2021/06/11 03:53:05;;;;;;;;;;;;;;;25.14;50.39;99985.48;1710588;82;20506;-78
2021/06/11 03:55:35;;;;;;;;;;;;;;;25.16;50.44;99983.29;1734826;82;20164;-78
2021/06/11 03:58:07;;;;;;;;;;;;;;;25.17;50.43;99986.88;1735605;82;20394;-77
2021/06/11 04:00:33;;;;;;;;;;;;;;;25.18;50.37;99990.72;1732714;82;20108;-77
2021/06/11 04:02:59;;;;;;;;;;;;;;;25.22;50.34;100000.06;1736120;82;20159;-77
2021/06/11 04:05:25;;;;;;;;;;;;;;;25.22;50.24;99994.58;1735064;82;20203;-77
2021/06/11 04:07:55;;;;;;;;;;;;;;;25.22;50.19;99994.58;1733795;81;20246;-76
2021/06/11 04:10:43;;;;;;;;;;;;;;;25.20;50.22;100001.41;1738341;82;20540;-76
2021/06/11 04:13:18;;;;;;;;;;;;;;;25.18;50.23;100003.59;1696271;84;20209;-75
2021/06/11 04:15:44;;;;;;;;;;;;;;;25.15;50.37;100004.13;1725661;83;20219;-76
2021/06/11 04:18:12;;;;;;;;;;;;;;;25.15;50.39;100004.94;1692960;83;21697;-76
2021/06/11 04:20:41;;;;;;;;;;;;;;;25.15;50.46;100009.05;1714800;82;20189;-77
2021/06/11 04:23:09;;;;;;;;;;;;;;;25.14;50.53;100015.62;1718958;83;20196;-77
2021/06/11 04:25:35;;;;;;;;;;;;;;;25.14;50.59;100014.27;1739533;82;20171;-76
2021/06/11 04:28:04;;;;;;;;;;;;;;;25.15;50.66;100013.16;1703942;84;20192;-76
2021/06/11 04:30:29;;;;;;;;;;;;;;;25.15;50.61;100015.91;1721648;82;20212;-80
2021/06/11 04:32:56;;;;;;;;;;;;;;;25.15;50.47;100020.02;1730224;82;20203;-78
2021/06/11 04:35:25;;;;;;;;;;;;;;;25.14;50.42;100018.38;1722181;82;20192;-76
2021/06/11 04:37:51;;;;;;;;;;;;;;;25.14;50.34;100021.11;1736415;81;20516;-78
2021/06/11 04:40:18;;;;;;;;;;;;;;;25.14;50.40;100026.59;1729461;82;20180;-77
2021/06/11 04:42:44;;;;;;;;;;;;;;;25.14;50.44;100024.41;1714039;82;20471;-78
2021/06/11 04:45:11;;;;;;;;;;;;;;;25.15;50.38;100029.61;1707689;82;20252;-78
2021/06/11 04:47:36;;;;;;;;;;;;;;;25.14;50.45;100025.77;1723034;83;20170;-78
2021/06/11 04:50:05;;;;;;;;;;;;;;;25.13;50.68;100030.44;1702836;83;20512;-79
2021/06/11 04:52:31;;;;;;;;;;;;;;;25.14;50.84;100029.88;1718911;83;20180;-78
2021/06/11 04:54:57;;;;;;;;;;;;;;;25.13;50.95;100027.69;1712823;83;20221;-77
2021/06/11 04:57:23;;;;;;;;;;;;;;;25.12;50.99;100033.42;1708202;83;20263;-78
2021/06/11 04:59:49;;;;;;;;;;;;;;;25.10;51.20;100032.32;1693343;83;20420;-78
2021/06/11 05:02:15;;;;;;;;;;;;;;;25.07;51.36;100028.70;1743146;81;20206;-78
2021/06/11 05:04:41;;;;;;;;;;;;;;;25.06;51.58;100031.16;1728793;82;20153;-77
2021/06/11 05:07:07;;;;;;;;;;;;;;;25.04;51.75;100032.81;1713661;82;20163;-79
2021/06/11 05:09:33;;;;;;;;;;;;;;;25.04;51.90;100030.61;1737367;82;20162;-79
2021/06/11 05:11:59;;;;;;;;;;;;;;;25.02;52.09;100030.04;1721202;82;20185;-78
2021/06/11 05:14:26;;;;;;;;;;;;;;;25.03;52.15;100030.34;1710825;81;20190;-79
2021/06/11 05:16:52;;;;;;;;;;;;;;;25.03;52.31;100025.69;1712937;83;20256;-80
2021/06/11 05:19:18;;;;;;;;;;;;;;;25.05;52.40;100032.26;1713235;83;20202;-79
2021/06/11 05:21:44;;;;;;;;;;;;;;;25.03;52.38;100032.53;1708697;83;20226;-79
2021/06/11 05:24:10;;;;;;;;;;;;;;;25.03;52.49;100035.83;1715186;83;20202;-78
2021/06/11 05:26:36;;;;;;;;;;;;;;;25.04;52.52;100041.58;1712849;83;20181;-79
2021/06/11 05:29:04;;;;;;;;;;;;;;;25.20;52.22;100037.86;1710628;83;20224;-78
2021/06/11 05:31:31;;;;;;;;;;;;;;;25.06;52.51;100040.20;1711584;83;20686;-78
2021/06/11 05:33:57;;;;;;;;;;;;;;;25.05;52.56;100040.48;1715975;83;20175;-78
2021/06/11 05:36:23;;;;;;;;;;;;;;;25.06;52.56;100040.75;1716418;83;20129;-78
2021/06/11 05:38:49;;;;;;;;;;;;;;;25.06;52.37;100041.58;1714068;83;20112;-78
2021/06/11 05:41:15;;;;;;;;;;;;;;;25.06;52.38;100035.27;1709551;83;20230;-78
2021/06/11 05:43:41;;;;;;;;;;;;;;;25.05;52.22;100030.34;1710373;83;20151;-79
2021/06/11 05:46:08;;;;;;;;;;;;;;;25.08;52.33;100029.58;1685387;83;20179;-77
2021/06/11 05:48:40;;;;;;;;;;;;;;;25.08;52.45;100030.41;1712363;83;20100;-78
2021/06/11 05:51:06;;;;;;;;;;;;;;;25.09;52.38;100032.05;1686797;83;20139;-79
2021/06/11 05:53:32;;;;;;;;;;;;;;;25.12;52.31;100037.53;1714528;83;20705;-78
2021/06/11 05:56:01;;;;;;;;;;;;;;;25.12;52.30;100032.90;1714104;83;20145;-78
2021/06/11 05:58:26;;;;;;;;;;;;;;;25.14;52.25;100042.22;1736707;82;20176;-80
2021/06/11 06:00:52;;;;;;;;;;;;;;;25.16;52.26;100039.47;1736559;81;20142;-79
2021/06/11 06:03:18;;;;;;;;;;;;;;;25.17;52.38;100042.52;1739477;81;20145;-79
2021/06/11 06:05:45;;;;;;;;;;;;;;;25.32;52.26;100045.89;1712010;82;20188;-80
2021/06/11 06:08:11;;;;;;;;;;;;;;;25.49;51.80;100048.45;1715267;82;20868;-79
2021/06/11 06:10:37;;;;;;;;;;;;;;;25.27;52.40;100054.91;1731707;81;20256;-79
2021/06/11 06:13:03;;;;;;;;;;;;;;;25.23;52.78;100056.53;1738133;81;20102;-80
2021/06/11 06:15:30;;;;;;;;;;;;;;;25.23;52.98;100058.45;1738211;82;20130;-79
2021/06/11 06:17:58;;;;;;;;;;;;;;;25.26;52.92;100061.48;1741300;81;20119;-79
2021/06/11 06:20:24;;;;;;;;;;;;;;;25.30;52.78;100063.98;1717872;82;20102;-79
2021/06/11 06:22:50;;;;;;;;;;;;;;;25.34;52.65;100056.58;1718934;82;20163;-78
2021/06/11 06:25:16;;;;;;;;;;;;;;;25.37;52.58;100058.80;1720645;82;20173;-79
2021/06/11 06:27:43;;;;;;;;;;;;;;;25.37;52.44;100062.91;1720974;82;20173;-78
2021/06/11 06:30:10;;;;;;;;;;;;;;;25.40;52.35;100062.39;1716103;82;20140;-78
2021/06/11 06:32:36;;;;;;;;;;;;;;;25.41;52.05;100067.60;1716643;82;20250;-79
2021/06/11 06:35:04;;;;;;;;;;;;;;;25.40;52.14;100063.77;1716452;82;20570;-78
2021/06/11 06:37:30;;;;;;;;;;;;;;;25.41;52.08;100062.11;1717549;82;20148;-78
2021/06/11 06:39:56;;;;;;;;;;;;;;;25.43;51.96;100066.77;1721499;82;20096;-78
2021/06/11 06:42:22;;;;;;;;;;;;;;;25.42;52.03;100059.64;1717487;82;20180;-78
2021/06/11 06:44:49;;;;;;;;;;;;;;;25.44;52.02;100064.34;1717128;82;20166;-79
2021/06/11 06:47:15;;;;;;;;;;;;;;;25.47;52.01;100067.07;1717211;82;20216;-78
2021/06/11 06:49:41;;;;;;;;;;;;;;;25.50;52.09;100064.63;1718689;82;20177;-79
2021/06/11 06:52:07;;;;;;;;;;;;;;;25.54;52.01;100070.41;1716641;82;20116;-78
2021/06/11 06:54:34;;;;;;;;;;;;;;;25.56;51.89;100065.48;1715795;82;20144;-77
2021/06/11 06:57:00;;;;;;;;;;;;;;;25.58;51.57;100070.16;1715237;82;20203;-76
2021/06/11 06:59:26;;;;;;;;;;;;;;;25.59;51.64;100063.58;1713038;82;20627;-77
2021/06/11 07:02:00;;;;;;;;;;;;;;;25.59;51.71;100068.25;1709073;82;20166;-76
2021/06/11 07:04:29;;;;;;;;;;;;;;;25.58;51.90;100061.94;1713860;82;20199;-77
2021/06/11 07:06:56;;;;;;;;;;;;;;;25.61;51.97;100065.50;1686618;82;20529;-77
2021/06/11 07:09:22;;;;;;;;;;;;;;;25.62;51.94;100068.55;1713067;82;20144;-77
2021/06/11 07:11:49;;;;;;;;;;;;;;;25.63;51.67;100062.51;1712081;82;20181;-77
2021/06/11 07:14:15;;;;;;;;;;;;;;;25.64;51.50;100067.72;1703822;82;20152;-77
2021/06/11 07:16:42;;;;;;;;;;;;;;;25.65;51.34;100070.73;1729575;81;20168;-77
2021/06/11 07:19:09;;;;;;;;;;;;;;;25.64;51.11;100069.09;1732269;82;20130;-77
2021/06/11 07:21:35;;;;;;;;;;;;;;;25.65;51.15;100068.53;1699305;83;20180;-77
2021/06/11 07:24:02;;;;;;;;;;;;;;;25.63;51.03;100070.19;1674178;83;20491;-77
2021/06/11 07:26:35;;;;;;;;;;;;;;;25.62;51.03;100067.69;1708551;82;20153;-77
2021/06/11 07:29:17;;;;;;;;;;;;;;;25.60;51.13;100073.45;1697117;82;20176;-78
2021/06/11 07:31:38;;;;;;;;;;;;;;;25.60;51.19;100074.83;1728528;82;20138;-78
2021/06/11 07:34:08;;;;;;;;;;;;;;;25.63;51.32;100071.55;1732343;82;20535;-78
2021/06/11 07:36:38;;;;;;;;;;;;;;;25.66;51.15;100077.04;1701087;83;20200;-78
2021/06/11 07:39:04;;;;;;;;;;;;;;;25.71;51.14;100079.28;1733620;80;20134;-77
2021/06/11 07:41:30;;;;;;;;;;;;;;;25.76;51.45;100075.77;1707501;83;20188;-78
2021/06/11 07:43:57;;;;;;;;;;;;;;;25.76;51.49;100079.33;1687466;84;20196;-77
2021/06/11 07:46:36;;;;;;;;;;;;;;;25.74;51.58;100075.16;1730550;81;20194;-77
2021/06/11 07:49:05;;;;;;;;;;;;;;;25.75;51.42;100083.14;1706731;82;20190;-78
2021/06/11 07:51:31;;;;;;;;;;;;;;;25.82;51.54;100082.09;1731007;82;20224;-79
2021/06/11 07:53:57;;;;;;;;;;;;;;;25.90;51.72;100074.72;1702364;83;20843;-77
2021/06/11 07:56:30;;;;;;;;;;;;;;;26.01;51.92;100083.25;1696495;82;20168;-77
2021/06/11 07:58:52;;;;;;;;;;;;;;;26.11;51.93;100079.16;1702100;83;20711;-79
2021/06/11 08:01:21;;;;;;;;;;;;;;;26.24;52.22;100071.78;1701275;82;20180;-76
2021/06/11 08:03:49;;;;;;;;;;;;;;;26.43;52.12;100075.39;1699911;83;20588;-77
2021/06/11 08:06:15;;;;;;;;;;;;;;;26.61;51.68;100067.20;1714309;81;20390;-77
2021/06/11 08:08:43;;;;;;;;;;;;;;;26.81;51.24;100067.22;1709962;82;20464;-78
2021/06/11 08:11:08;;;;;;;;;;;;;;;26.98;50.61;100067.77;1715582;82;20167;-78
2021/06/11 08:13:34;;;;;;;;;;;;;;;27.13;50.40;100068.33;1714098;82;20769;-77
2021/06/11 08:16:01;;;;;;;;;;;;;;;27.30;50.33;100072.16;1716337;82;20456;-77
2021/06/11 08:18:27;;;;;;;;;;;;;;;27.48;49.96;100067.95;1715354;82;20164;-78
2021/06/11 08:20:53;;;;;;;;;;;;;;;27.62;49.15;100069.59;1712981;82;20196;-77
2021/06/11 08:23:19;;;;;;;;;;;;;;;27.73;49.00;100072.59;1713660;82;20218;-76
2021/06/11 08:25:45;;;;;;;;;;;;;;;27.84;48.85;100070.61;1713548;82;20168;-78
2021/06/11 08:28:11;;;;;;;;;;;;;;;27.90;48.23;100072.25;1715772;82;20194;-79
2021/06/11 08:30:37;;;;;;;;;;;;;;;27.90;47.63;100077.20;1714529;82;20190;-78
2021/06/11 08:33:04;;;;;;;;;;;;;;;27.87;47.27;100077.75;1713549;82;20157;-77
2021/06/11 08:35:31;;;;;;;;;;;;;;;27.83;47.20;100075.84;1712547;82;20559;-77
2021/06/11 08:37:58;;;;;;;;;;;;;;;27.80;47.25;100072.56;1713956;82;20153;-77
2021/06/11 08:40:24;;;;;;;;;;;;;;;27.79;47.24;100066.77;1716218;82;20173;-76
2021/06/11 08:42:51;;;;;;;;;;;;;;;27.78;47.18;100063.75;1684318;82;20464;-78
2021/06/11 08:45:17;;;;;;;;;;;;;;;27.77;46.92;100070.92;1714597;82;20196;-79
2021/06/11 08:47:48;;;;;;;;;;;;;;;27.73;46.57;100061.58;1683921;82;20173;-78
2021/06/11 08:50:16;;;;;;;;;;;;;;;27.68;46.23;100070.65;1712780;82;20218;-75
2021/06/11 08:52:45;;;;;;;;;;;;;;;27.63;46.23;100072.05;1649071;82;20535;-77
2021/06/11 08:55:12;;;;;;;;;;;;;;;27.55;46.15;100064.37;1712542;82;20174;-77
2021/06/11 08:57:38;;;;;;;;;;;;;;;27.46;46.27;100062.73;1714567;81;20145;-76
2021/06/11 09:00:08;;;;;;;;;;;;;;;27.40;46.20;100060.30;1715855;81;20166;-76
2021/06/11 09:02:34;;;;;;;;;;;;;;;27.35;46.25;100054.81;1715048;82;20152;-75
2021/06/11 09:05:01;;;;;;;;;;;;;;;27.30;46.43;100058.40;1713502;82;20165;-76
2021/06/11 09:07:31;;;;;;;;;;;;;;;27.25;46.37;100056.48;1687561;82;20208;-76
2021/06/11 09:10:18;;;;;;;;;;;;;;;27.20;46.69;100052.91;1713155;82;20443;-76
2021/06/11 09:12:44;;;;;;;;;;;;;;;27.16;46.59;100055.93;1702222;82;20179;-76
2021/06/11 09:15:20;;;;;;;;;;;;;;;27.09;46.81;100057.61;1683005;82;20177;-76
2021/06/11 09:17:53;;;;;;;;;;;;;;;27.03;47.08;100051.82;1681373;82;20210;-78
2021/06/11 09:20:41;;;;;;;;;;;;;;;27.00;47.46;100050.44;1713480;82;20632;-78
2021/06/11 09:23:08;;;;;;;;;;;;;;;27.01;47.18;100053.45;1714969;82;20177;-78
2021/06/11 09:25:43;;;;;;;;;;;;;;;26.98;47.18;100050.42;1717846;82;21008;-77
2021/06/11 09:28:30;;;;;;;;;;;;;;;;;;;;;
2021/06/11 09:31:17;;;;;;;;;;;;;;;26.94;47.08;100052.11;1652329;85;20178;-77
2021/06/11 09:33:45;;;;;;;;;;;;;;;26.88;46.83;100049.06;1656018;85;20151;-77
2021/06/11 09:36:13;;;;;;;;;;;;;;;26.84;47.03;100054.84;1702702;82;20204;-77
2021/06/11 09:38:41;;;;;;;;;;;;;;;26.81;47.27;100054.30;1685432;82;20998;-76
2021/06/11 09:41:18;;;;;;;;;;;;;;;26.79;47.19;100052.92;1684695;82;20621;-78
2021/06/11 09:43:55;;;;;;;;;;;;;;;26.78;47.68;100056.22;1682831;82;20193;-77
2021/06/11 09:46:22;;;;;;;;;;;;;;;26.81;47.79;100050.18;1712069;82;20174;-78
2021/06/11 09:48:50;;;;;;;;;;;;;;;26.87;47.81;100052.92;1712877;82;20607;-78
2021/06/11 09:51:20;;;;;;;;;;;;;;;26.88;47.43;100057.31;1708796;82;20155;-76
2021/06/11 09:53:47;;;;;;;;;;;;;;;26.89;47.32;100052.08;1712342;82;20612;-78
2021/06/11 09:56:23;;;;;;;;;;;;;;;26.89;47.39;100050.19;1710221;82;20173;-77
2021/06/11 09:58:50;;;;;;;;;;;;;;;26.89;47.42;100045.22;1710043;82;20166;-80
2021/06/11 10:01:17;;;;;;;;;;;;;;;26.88;47.16;100047.14;1714799;82;20160;-77
2021/06/11 10:03:49;;;;;;;;;;;;;;;26.90;47.21;100046.89;1717789;82;20145;-77
2021/06/11 10:06:16;;;;;;;;;;;;;;;26.93;47.54;100047.69;1716198;82;20160;-76
2021/06/11 10:08:46;;;;;;;;;;;;;;;27.00;48.23;100050.44;1715079;82;20160;-77
2021/06/11 10:11:14;;;;;;;;;;;;;;;27.08;48.52;100050.44;1712792;82;20599;-76
2021/06/11 10:13:41;;;;;;;;;;;;;;;27.16;48.20;100041.66;1713274;82;20223;-77
2021/06/11 10:16:08;;;;;;;;;;;;;;;27.24;47.44;100044.37;1713083;82;20183;-76
2021/06/11 10:18:35;;;;;;;;;;;;;;;27.31;46.94;100046.30;1716945;82;20176;-76
2021/06/11 10:21:01;;;;;;;;;;;;;;;27.36;46.86;100046.83;1713643;82;20148;-76
2021/06/11 10:23:29;;;;;;;;;;;;;;;27.41;47.03;100048.19;1713555;82;20156;-76
2021/06/11 10:25:56;;;;;;;;;;;;;;;27.46;47.32;100039.36;1715568;82;20599;-76
2021/06/11 10:28:28;;;;;;;;;;;;;;;27.55;47.02;100043.73;1685870;82;20172;-76
2021/06/11 10:31:04;;;;;;;;;;;;;;;27.61;46.96;100048.09;1685364;82;20180;-78
2021/06/11 10:33:52;;;;;;;;;;;;;;;27.67;46.39;100037.37;1708766;82;20144;-77
2021/06/11 10:36:32;;;;;;;;;;;;;;;27.70;46.26;100035.41;1715247;82;20210;-77
2021/06/11 10:39:13;;;;;;;;;;;;;;;27.77;46.05;100028.27;1715466;82;20152;-77
2021/06/11 10:42:01;;;;;;;;;;;;;;;27.81;46.21;100024.67;1716728;82;20260;-76
2021/06/11 10:44:39;;;;;;;;;;;;;;;27.88;45.58;100020.77;1717156;82;20493;-75
2021/06/11 10:47:21;;;;;;;;;;;;;;;27.92;45.53;100027.36;1718644;82;20182;-76
2021/06/11 10:50:00;;;;;;;;;;;;;;;27.95;45.23;100019.92;1714681;82;20808;-75
2021/06/11 10:52:35;;;;;;;;;;;;;;;28.00;44.94;100025.39;1724500;82;20463;-77
2021/06/11 10:55:24;;;;;;;;;;;;;;;28.00;44.61;100030.34;1716612;82;20588;-76
2021/06/11 10:57:59;;;;;;;;;;;;;;;28.00;44.46;100024.83;1714430;82;20173;-77
2021/06/11 11:00:31;;;;;;;;;;;;;;;27.98;44.54;100017.95;1715377;82;20196;-77
2021/06/11 11:02:58;;;;;;;;;;;;;;;27.98;44.73;100028.44;1734043;82;20150;-77
2021/06/11 11:05:32;;;;;;;;;;;;;;;27.96;44.22;100020.18;1716196;82;20151;-77
2021/06/11 11:07:59;;;;;;;;;;;;;;;27.94;43.83;100019.10;1698301;82;20192;-77
2021/06/11 11:10:48;;;;;;;;;;;;;;;27.91;44.03;100014.71;1716604;82;20474;-77
2021/06/11 11:13:17;;;;;;;;;;;;;;;27.90;43.94;100013.89;1716875;82;20446;-75
2021/06/11 11:15:46;;;;;;;;;;;;;;;27.87;43.91;100010.31;1713554;82;20165;-76
2021/06/11 11:18:14;;;;;;;;;;;;;;;27.83;43.97;100007.04;1711712;82;20444;-77
2021/06/11 11:20:41;;;;;;;;;;;;;;;27.81;44.29;100008.16;1711311;82;20177;-76
2021/06/11 11:23:09;;;;;;;;;;;;;;;27.79;44.11;100003.47;1720531;82;20627;-76
2021/06/11 11:25:38;;;;;;;;;;;;;;;27.79;44.43;100002.09;1712055;82;20150;-76
2021/06/11 11:28:06;;;;;;;;;;;;;;;27.77;44.88;99993.31;1708713;82;20159;-77
2021/06/11 11:30:37;;;;;;;;;;;;;;;27.78;44.92;99995.50;1687937;82;20483;-78
2021/06/11 11:33:01;;;;;;;;;;;;;;;27.79;45.13;99995.77;1711944;82;20224;-76
2021/06/11 11:35:28;;;;;;;;;;;;;;;27.79;44.92;99996.59;1710324;82;20143;-77
2021/06/11 11:37:55;;;;;;;;;;;;;;;27.81;44.98;99998.52;1715519;82;20148;-79
2021/06/11 11:40:26;;;;;;;;;;;;;;;27.80;44.80;99996.88;1717110;82;20474;-78
2021/06/11 11:42:53;;;;;;;;;;;;;;;27.81;44.71;100002.65;1718721;82;20221;-77
2021/06/11 11:45:29;;;;;;;;;;;;;;;27.79;44.91;99996.59;1715424;82;20164;-78
2021/06/11 11:47:58;;;;;;;;;;;;;;;27.77;44.75;99998.81;1717818;82;20193;-78
2021/06/11 11:50:28;;;;;;;;;;;;;;;27.74;44.47;99993.87;1714332;82;20169;-78
2021/06/11 11:53:00;;;;;;;;;;;;;;;27.71;44.28;100000.48;1694898;82;20241;-79
2021/06/11 11:55:26;;;;;;;;;;;;;;;27.68;44.56;99990.85;1723285;82;20160;-77
2021/06/11 11:58:10;;;;;;;;;;;;;;;27.65;44.65;99991.41;1722745;82;20198;-78
2021/06/11 12:00:27;;;;;;;;;;;;;;;27.62;44.68;99989.80;1714230;82;20175;-78
2021/06/11 12:02:55;;;;;;;;;;;;;;;27.59;44.87;99989.80;1717738;82;20165;-77
2021/06/11 12:05:20;;;;;;;;;;;;;;;27.61;44.90;99989.50;1717705;82;20174;-77
2021/06/11 12:07:46;;;;;;;;;;;;;;;27.61;44.90;99991.70;1719183;82;20155;-77
2021/06/11 12:10:12;;;;;;;;;;;;;;;27.63;45.06;99993.63;1719147;82;20222;-76
2021/06/11 12:12:39;;;;;;;;;;;;;;;27.63;44.92;99989.50;1721821;82;20144;-77
2021/06/11 12:15:05;;;;;;;;;;;;;;;27.64;44.79;99992.52;1724324;82;20168;-77
2021/06/11 12:17:32;;;;;;;;;;;;;;;27.59;44.82;99992.55;1692001;82;20162;-77
2021/06/11 12:19:58;;;;;;;;;;;;;;;27.57;45.13;99993.39;1715130;82;20149;-77
2021/06/11 12:22:27;;;;;;;;;;;;;;;27.53;45.10;99990.38;1712511;82;20207;-77
2021/06/11 12:24:53;;;;;;;;;;;;;;;27.52;45.21;99992.02;1719080;82;20205;-78
2021/06/11 12:27:19;;;;;;;;;;;;;;;27.52;45.27;100001.64;1720422;82;20156;-78
2021/06/11 12:29:47;;;;;;;;;;;;;;;27.50;45.21;99988.18;1718579;82;20220;-78
2021/06/11 12:32:13;;;;;;;;;;;;;;;27.48;44.86;99993.16;1713273;82;20482;-79
2021/06/11 12:34:39;;;;;;;;;;;;;;;27.47;44.96;99996.16;1722309;82;20169;-76
2021/06/11 12:37:08;;;;;;;;;;;;;;;27.47;45.02;99991.48;1714825;82;20161;-77
2021/06/11 12:39:34;;;;;;;;;;;;;;;27.47;44.96;99987.91;1719443;82;20210;-76
2021/06/11 12:42:10;;;;;;;;;;;;;;;27.46;44.79;99983.52;1718172;82;20127;-77
2021/06/11 12:44:31;;;;;;;;;;;;;;;27.45;44.54;99979.95;1719292;82;20147;-79
2021/06/11 12:46:57;;;;;;;;;;;;;;;27.46;44.72;99982.15;1719055;82;20169;-77
2021/06/11 12:49:25;;;;;;;;;;;;;;;27.45;44.51;99979.14;1728050;82;20153;-78